Forside
METAR-TAF:

METAR-TAF

Lufthavne :

Holland, Michigan, USA

Breddekreds: 42-44-46N, længdekreds: 086-05-48W, højde: 209 m

Aktuelle vejr

Denne rapport blev lavet for 29 minutter siden, kl. 13:53 UTC
Vind 4 kt fra østnordøst
Temperatur 3°C
Fugtighed 81%
Tryk 1018 hPa
Sigt: 16.1 km
Brudte skyer i en højde af 1200 ft
Overskyet i en højde af 5000 ft

METAR: KBIV 311353Z AUTO 06004KT 10SM BKN012 OVC050 03/00 A3005 RMK AO2 SLP183 T00330000 $

Tid: 10:22 (14:22 UTC)


TAF: fraværende

Vejrobservationer og prognoser fra mere end 4000 lufthavne (METAR og TAF).

De gule og røde prikker repræsenterer de meteorologiske stationer.

Flyt musen over at se navnet på stationen.

Så klik over at se vejr observationer og prognoser.

At skifte det kort: Klik på de grønne knapper med et sort kors for at zoome ind; på den grønne knap med en bindestreg for at zoome ud; eller på de grønne pile for tilstødende kort.


METAR-TAF: